createdAt,value
2022-11-28T00:01:18.002Z,8.77
2022-11-28T00:03:46.286Z,9.20
2022-11-28T00:06:14.832Z,9.13
2022-11-28T00:08:44.647Z,9.00
2022-11-28T00:11:13.839Z,9.27
2022-11-28T00:13:42.265Z,9.15
2022-11-28T00:16:11.247Z,9.30
2022-11-28T00:18:39.560Z,9.30
2022-11-28T00:21:09.038Z,9.60
2022-11-28T00:23:37.488Z,8.70
2022-11-28T00:26:08.093Z,9.75
2022-11-28T00:28:36.352Z,9.15
2022-11-28T00:31:04.749Z,9.30
2022-11-28T00:33:33.086Z,9.27
2022-11-28T00:36:01.804Z,9.00
2022-11-28T00:38:30.544Z,9.43
2022-11-28T00:41:01.973Z,8.90
2022-11-28T00:43:31.600Z,9.93
2022-11-28T00:46:00.165Z,9.10
2022-11-28T00:48:28.695Z,9.33
2022-11-28T00:50:57.249Z,9.20
2022-11-28T00:53:25.484Z,9.90
2022-11-28T00:55:53.752Z,10.13
2022-11-28T00:58:22.041Z,9.45
2022-11-28T01:00:51.668Z,9.10
2022-11-28T01:03:20.276Z,9.02
2022-11-28T01:05:48.585Z,8.63
2022-11-28T01:08:16.892Z,8.83
2022-11-28T01:10:46.222Z,9.10
2022-11-28T01:13:14.503Z,8.77
2022-11-28T01:15:43.327Z,8.20
2022-11-28T01:18:12.939Z,9.40
2022-11-28T01:20:41.241Z,9.40
2022-11-28T01:23:09.527Z,8.88
2022-11-28T01:25:37.807Z,8.80
2022-11-28T01:28:06.207Z,8.80
2022-11-28T01:30:35.443Z,8.73
2022-11-28T01:33:03.686Z,8.80
2022-11-28T01:35:33.289Z,8.82
2022-11-28T01:38:01.496Z,9.00
2022-11-28T01:40:29.740Z,9.00
2022-11-28T01:42:57.935Z,9.00
2022-11-28T01:45:27.048Z,9.60
2022-11-28T01:47:58.175Z,8.60
2022-11-28T01:50:26.751Z,8.85
2022-11-28T01:52:57.893Z,9.70
2022-11-28T01:55:27.691Z,9.52
2022-11-28T01:57:56.866Z,8.25
2022-11-28T02:00:25.246Z,8.63
2022-11-28T02:02:55.665Z,8.40
2022-11-28T02:05:24.583Z,8.13
2022-11-28T02:07:53.333Z,7.57
2022-11-28T02:10:25.364Z,7.70
2022-11-28T02:13:04.280Z,7.60
2022-11-28T02:15:42.762Z,8.00
2022-11-28T02:18:19.222Z,7.00
2022-11-28T02:21:04.919Z,7.10
2022-11-28T02:23:40.445Z,7.20
2022-11-28T02:26:24.235Z,7.20
2022-11-28T02:29:00.927Z,7.20
2022-11-28T02:31:37.597Z,6.15
2022-11-28T02:34:11.678Z,6.80
2022-11-28T02:36:43.640Z,5.97
2022-11-28T02:39:14.408Z,6.30
2022-11-28T02:41:45.093Z,6.00
2022-11-28T02:44:14.819Z,5.70
2022-11-28T02:46:45.385Z,6.35
2022-11-28T02:49:17.310Z,6.00
2022-11-28T02:51:48.028Z,5.68
2022-11-28T02:54:17.557Z,4.60
2022-11-28T02:56:49.174Z,5.78
2022-11-28T02:59:27.477Z,5.43
2022-11-28T03:01:55.800Z,5.68
2022-11-28T03:04:27.751Z,5.03
2022-11-28T03:07:00.022Z,5.20
2022-11-28T03:09:38.542Z,5.50
2022-11-28T03:12:12.987Z,5.70
2022-11-28T03:14:45.552Z,5.85
2022-11-28T03:17:19.389Z,5.85
2022-11-28T03:19:53.931Z,5.90
2022-11-28T03:22:28.503Z,5.93
2022-11-28T03:24:59.077Z,5.70
2022-11-28T03:27:31.936Z,6.45
2022-11-28T03:30:02.708Z,6.68
2022-11-28T03:32:32.278Z,6.70
2022-11-28T03:35:04.562Z,6.38
2022-11-28T03:37:35.527Z,7.43
2022-11-28T03:40:06.018Z,7.18
2022-11-28T03:42:35.420Z,6.65
2022-11-28T03:45:06.519Z,7.32
2022-11-28T03:47:36.606Z,7.90
2022-11-28T03:50:09.023Z,8.02
2022-11-28T03:52:39.770Z,8.50
2022-11-28T03:55:12.666Z,7.60
2022-11-28T03:57:44.284Z,8.55
2022-11-28T04:00:13.960Z,8.48
2022-11-28T04:02:46.790Z,8.40
2022-11-28T04:05:24.074Z,8.73
2022-11-28T04:07:54.458Z,9.35
2022-11-28T04:10:23.764Z,8.90
2022-11-28T04:12:55.600Z,9.05
2022-11-28T04:15:28.099Z,9.30
2022-11-28T04:17:58.918Z,9.20
2022-11-28T04:20:32.143Z,9.63
2022-11-28T04:23:02.756Z,10.40
2022-11-28T04:25:32.476Z,10.20
2022-11-28T04:28:02.250Z,9.80
2022-11-28T04:30:30.558Z,10.50
2022-11-28T04:33:01.015Z,10.40
2022-11-28T04:35:32.571Z,10.82
2022-11-28T04:38:01.482Z,11.10
2022-11-28T04:40:31.387Z,10.60
2022-11-28T04:43:00.625Z,12.15
2022-11-28T04:45:31.749Z,11.52
2022-11-28T04:48:00.163Z,11.20
2022-11-28T04:50:32.782Z,10.65
2022-11-28T04:53:05.765Z,11.20
2022-11-28T04:55:37.076Z,11.10
2022-11-28T04:58:07.575Z,11.50
2022-11-28T05:00:36.449Z,11.43
2022-11-28T05:03:05.857Z,11.90
2022-11-28T05:05:34.079Z,11.57
2022-11-28T05:08:03.666Z,12.05
2022-11-28T05:10:32.164Z,12.93
2022-11-28T05:13:00.384Z,12.20
2022-11-28T05:15:28.687Z,12.18
2022-11-28T05:17:56.986Z,12.48
2022-11-28T05:20:25.252Z,13.10
2022-11-28T05:22:53.470Z,13.30
2022-11-28T05:25:23.115Z,12.57
2022-11-28T05:27:51.370Z,12.70
2022-11-28T05:30:19.701Z,13.55
2022-11-28T05:32:48.071Z,12.87
2022-11-28T05:35:16.364Z,13.00
2022-11-28T05:37:44.567Z,12.90
2022-11-28T05:40:13.283Z,13.15
2022-11-28T05:42:42.916Z,11.85
2022-11-28T05:45:11.549Z,14.17
2022-11-28T05:47:39.796Z,14.20
2022-11-28T05:50:09.067Z,13.98
2022-11-28T05:52:37.339Z,13.00
2022-11-28T05:55:05.898Z,13.00
2022-11-28T05:57:34.373Z,12.88
2022-11-28T06:00:04.163Z,13.93
2022-11-28T06:02:32.487Z,12.80
2022-11-28T06:05:16.097Z,13.18
2022-11-28T06:07:49.016Z,13.98
2022-11-28T06:10:17.359Z,14.02
2022-11-28T06:12:45.625Z,13.80
2022-11-28T06:15:15.269Z,14.40
2022-11-28T06:17:43.697Z,13.50
2022-11-28T06:20:12.098Z,13.55
2022-11-28T06:22:40.451Z,14.15
2022-11-28T06:25:08.834Z,14.15
2022-11-28T06:27:37.240Z,14.80
2022-11-28T06:30:05.816Z,14.88
2022-11-28T06:32:35.383Z,14.43
2022-11-28T06:35:03.617Z,15.20
2022-11-28T06:37:31.873Z,15.48
2022-11-28T06:40:00.463Z,15.10
2022-11-28T06:42:28.752Z,15.57
2022-11-28T06:44:57.099Z,16.77
2022-11-28T06:47:25.425Z,16.33
2022-11-28T06:49:55.003Z,16.70
2022-11-28T06:52:23.332Z,17.10
2022-11-28T06:54:51.577Z,16.42
2022-11-28T06:57:19.850Z,17.25
2022-11-28T06:59:48.172Z,16.90
2022-11-28T07:02:16.515Z,17.60
2022-11-28T07:04:44.843Z,17.65
2022-11-28T07:07:16.633Z,17.58
2022-11-28T07:09:45.646Z,18.52
2022-11-28T07:12:14.121Z,17.52
2022-11-28T07:14:42.371Z,16.88
2022-11-28T07:17:11.713Z,18.70
2022-11-28T07:19:41.100Z,17.23
2022-11-28T07:22:11.313Z,18.42
2022-11-28T07:24:40.913Z,18.00
2022-11-28T07:27:09.216Z,18.02
2022-11-28T07:29:37.615Z,18.63
2022-11-28T07:32:06.369Z,19.50
2022-11-28T07:34:35.273Z,18.73
2022-11-28T07:37:03.594Z,19.67
2022-11-28T07:39:31.870Z,19.70
2022-11-28T07:42:01.524Z,19.83
2022-11-28T07:44:29.830Z,19.95
2022-11-28T07:46:58.164Z,20.50
2022-11-28T07:49:26.489Z,19.17
2022-11-28T07:51:54.768Z,18.95
2022-11-28T07:54:23.321Z,20.17
2022-11-28T07:59:41.408Z,21.85
2022-11-28T08:02:11.188Z,22.00
2022-11-28T08:04:45.942Z,22.55
2022-11-28T08:07:17.224Z,22.43
2022-11-28T08:09:47.680Z,22.55
2022-11-28T08:12:15.915Z,22.75
2022-11-28T08:14:45.843Z,24.02
2022-11-28T08:17:14.191Z,22.17
2022-11-28T08:19:42.449Z,23.13
2022-11-28T08:22:10.651Z,22.13
2022-11-28T08:24:39.092Z,22.48
2022-11-28T08:27:07.342Z,23.15
2022-11-28T08:29:35.569Z,24.70
2022-11-28T08:32:05.331Z,23.60
2022-11-28T08:34:33.613Z,24.25
2022-11-28T08:37:01.928Z,23.55
2022-11-28T08:39:30.223Z,23.90
2022-11-28T08:41:59.529Z,25.30
2022-11-28T08:44:30.386Z,24.20
2022-11-28T08:46:58.908Z,23.23
2022-11-28T08:49:28.822Z,23.27
2022-11-28T08:51:57.180Z,24.63
2022-11-28T08:54:25.493Z,24.20
2022-11-28T08:56:53.732Z,24.67
2022-11-28T08:59:22.072Z,24.65
2022-11-28T09:01:50.572Z,25.73
2022-11-28T09:04:18.984Z,26.13
2022-11-28T09:06:48.752Z,26.88
2022-11-28T09:09:17.416Z,24.33
2022-11-28T09:11:45.798Z,25.35
2022-11-28T09:14:14.223Z,25.40
2022-11-28T09:16:42.882Z,25.90
2022-11-28T09:19:11.191Z,25.23
2022-11-28T09:21:40.653Z,25.02
2022-11-28T09:24:13.890Z,25.35
2022-11-28T09:26:42.210Z,26.42
2022-11-28T09:29:10.461Z,26.23
2022-11-28T09:31:42.014Z,24.35
2022-11-28T09:34:14.128Z,24.75
2022-11-28T09:36:42.357Z,26.40
2022-11-28T09:39:12.007Z,25.70
2022-11-28T09:41:52.149Z,26.73
2022-11-28T09:44:22.973Z,25.92
2022-11-28T09:46:53.155Z,26.83
2022-11-28T09:49:26.693Z,29.30
2022-11-28T09:51:56.172Z,26.83
2022-11-28T09:54:29.295Z,27.00
2022-11-28T09:56:58.650Z,28.88
2022-11-28T09:59:28.372Z,26.63
2022-11-28T10:02:03.637Z,29.00
2022-11-28T10:04:39.642Z,27.70
2022-11-28T10:07:11.272Z,26.50
2022-11-28T10:09:44.678Z,28.13
2022-11-28T10:12:20.750Z,28.67
2022-11-28T10:14:56.329Z,27.25
2022-11-28T10:17:30.741Z,26.35
2022-11-28T10:20:02.825Z,27.10
2022-11-28T10:22:35.992Z,27.35
2022-11-28T10:25:08.315Z,27.30
2022-11-28T10:27:37.332Z,26.35
2022-11-28T10:30:07.843Z,25.48
2022-11-28T10:32:38.654Z,26.13
2022-11-28T10:35:08.476Z,26.27
2022-11-28T10:37:38.307Z,24.58
2022-11-28T10:40:18.147Z,23.98
2022-11-28T10:42:50.787Z,23.75
2022-11-28T10:45:23.795Z,24.25
2022-11-28T10:48:29.572Z,23.60
2022-11-28T10:50:54.655Z,23.65
2022-11-28T10:53:28.960Z,24.33
2022-11-28T10:56:09.886Z,23.75
2022-11-28T10:58:43.647Z,24.55
2022-11-28T11:01:12.431Z,25.27
2022-11-28T11:03:41.514Z,25.02
2022-11-28T11:06:10.504Z,24.45
2022-11-28T11:08:40.006Z,24.83
2022-11-28T11:11:15.701Z,22.80
2022-11-28T11:13:57.609Z,23.52
2022-11-28T11:16:25.938Z,23.40
2022-11-28T11:18:55.087Z,24.98
2022-11-28T11:21:24.847Z,24.25
2022-11-28T11:24:13.020Z,26.25
2022-11-28T11:26:43.568Z,25.53
2022-11-28T11:29:22.250Z,25.40
2022-11-28T11:31:53.168Z,26.20
2022-11-28T11:34:22.635Z,25.23
2022-11-28T11:36:51.403Z,26.92
2022-11-28T11:39:23.808Z,26.90
2022-11-28T11:41:58.966Z,26.90
2022-11-28T11:44:29.700Z,28.10
2022-11-28T11:47:00.586Z,25.88
2022-11-28T11:49:33.664Z,26.42
2022-11-28T11:52:03.267Z,27.63
2022-11-28T11:54:31.612Z,27.35
2022-11-28T11:57:30.922Z,26.13
2022-11-28T11:59:51.314Z,27.88
2022-11-28T12:02:23.252Z,26.30
2022-11-28T12:04:55.751Z,26.98
2022-11-28T12:07:28.325Z,27.40
2022-11-28T12:10:01.730Z,26.17
2022-11-28T12:12:36.984Z,27.60
2022-11-28T12:15:05.807Z,26.80
2022-11-28T12:17:48.625Z,25.10
2022-11-28T12:20:25.277Z,26.80
2022-11-28T12:22:58.304Z,26.48
2022-11-28T12:25:32.237Z,25.45
2022-11-28T12:28:06.280Z,26.98
2022-11-28T12:30:48.294Z,27.20
2022-11-28T12:33:22.689Z,26.67
2022-11-28T12:36:00.304Z,27.45
2022-11-28T12:38:37.247Z,25.67
2022-11-28T12:41:15.865Z,26.20
2022-11-28T12:43:52.903Z,27.08
2022-11-28T12:46:24.906Z,26.20
2022-11-28T12:49:00.200Z,26.65
2022-11-28T12:51:33.758Z,25.88
2022-11-28T12:54:07.891Z,26.70
2022-11-28T12:56:42.086Z,26.02
2022-11-28T12:59:19.102Z,23.15
2022-11-28T13:01:53.593Z,25.58
2022-11-28T13:04:29.002Z,26.25
2022-11-28T13:07:00.524Z,25.80
2022-11-28T13:09:33.536Z,24.40
2022-11-28T13:12:08.100Z,24.67
2022-11-28T13:14:41.618Z,25.30
2022-11-28T13:17:15.159Z,25.58
2022-11-28T13:19:49.102Z,26.45
2022-11-28T13:22:20.505Z,25.20
2022-11-28T13:24:52.506Z,26.45
2022-11-28T13:27:24.742Z,25.98
2022-11-28T13:29:58.356Z,26.23
2022-11-28T13:32:30.353Z,27.90
2022-11-28T13:35:00.316Z,25.17
2022-11-28T13:40:25.351Z,27.10
2022-11-28T13:43:06.362Z,26.63
2022-11-28T13:45:39.369Z,26.38
2022-11-28T13:48:32.250Z,24.65
2022-11-28T13:51:20.710Z,26.20
2022-11-28T13:53:50.600Z,26.20
2022-11-28T13:56:23.908Z,26.40
2022-11-28T13:58:54.656Z,25.90
2022-11-28T14:01:24.664Z,25.35
2022-11-28T14:03:55.081Z,25.35
2022-11-28T14:06:25.086Z,26.30
2022-11-28T14:09:03.224Z,25.05
2022-11-28T14:11:50.597Z,26.35
2022-11-28T14:14:31.504Z,25.40
2022-11-28T14:17:07.414Z,26.08
2022-11-28T14:19:43.965Z,25.35
2022-11-28T14:22:19.676Z,26.00
2022-11-28T14:24:55.108Z,25.98
2022-11-28T14:27:25.015Z,25.23
2022-11-28T14:29:54.705Z,26.90
2022-11-28T14:32:31.159Z,26.08
2022-11-28T14:35:00.169Z,26.17
2022-11-28T14:37:38.783Z,26.83
2022-11-28T14:40:47.006Z,25.85
2022-11-28T14:43:27.996Z,25.85
2022-11-28T14:46:24.362Z,25.60
2022-11-28T14:49:19.857Z,26.35
2022-11-28T14:55:17.316Z,24.92
2022-11-28T14:57:58.820Z,23.38
2022-11-28T15:00:28.909Z,23.92
2022-11-28T15:03:09.664Z,23.98
2022-11-28T15:05:59.202Z,23.25
2022-11-28T15:08:42.283Z,24.60
2022-11-28T15:11:25.644Z,24.75
2022-11-28T15:14:10.031Z,24.37
2022-11-28T15:16:45.222Z,23.10
2022-11-28T15:19:24.078Z,23.80
2022-11-28T15:21:55.169Z,23.08
2022-11-28T15:24:27.342Z,23.65
2022-11-28T15:26:57.785Z,22.33
2022-11-28T15:29:28.030Z,21.95
2022-11-28T15:31:58.559Z,20.77
2022-11-28T15:34:29.591Z,21.33
2022-11-28T15:37:01.395Z,21.45
2022-11-28T15:39:34.766Z,21.88
2022-11-28T15:42:04.846Z,21.73
2022-11-28T15:44:33.165Z,20.73
2022-11-28T15:47:01.370Z,20.60
2022-11-28T15:49:31.750Z,20.45
2022-11-28T15:52:03.029Z,21.35
2022-11-28T15:54:40.801Z,20.90
2022-11-28T15:57:19.332Z,22.08
2022-11-28T15:59:47.413Z,21.30
2022-11-28T16:02:22.660Z,19.17
2022-11-28T16:04:53.477Z,20.25
2022-11-28T16:07:23.045Z,19.27
2022-11-28T16:10:00.489Z,19.58
2022-11-28T16:12:29.548Z,19.55
2022-11-28T16:15:01.875Z,19.15
2022-11-28T16:17:33.818Z,17.33
2022-11-28T16:20:04.568Z,18.70
2022-11-28T16:22:37.464Z,18.03
2022-11-28T16:25:23.352Z,17.85
2022-11-28T16:27:53.314Z,19.00
2022-11-28T16:30:37.442Z,17.55
2022-11-28T16:33:35.529Z,16.83
2022-11-28T16:36:20.202Z,17.05
2022-11-28T16:38:51.292Z,16.30
2022-11-28T16:41:22.916Z,16.13
2022-11-28T16:43:55.266Z,15.02
2022-11-28T16:46:25.252Z,17.95
2022-11-28T16:48:56.844Z,16.27
2022-11-28T16:51:45.460Z,15.90
2022-11-28T16:54:32.322Z,16.90
2022-11-28T16:57:11.764Z,15.27
2022-11-28T16:59:39.867Z,15.40
2022-11-28T17:02:18.902Z,15.90
2022-11-28T17:04:47.389Z,14.38
2022-11-28T17:07:18.012Z,14.48
2022-11-28T17:09:48.716Z,14.45
2022-11-28T17:12:23.640Z,14.82
2022-11-28T17:14:51.569Z,14.67
2022-11-28T17:17:20.967Z,15.07
2022-11-28T17:19:48.856Z,14.63
2022-11-28T17:22:19.375Z,14.13
2022-11-28T17:24:49.672Z,13.93
2022-11-28T17:27:17.708Z,14.95
2022-11-28T17:29:45.955Z,14.15
2022-11-28T17:32:15.121Z,14.27
2022-11-28T17:34:43.760Z,14.38
2022-11-28T17:37:11.839Z,14.10
2022-11-28T17:39:39.955Z,14.02
2022-11-28T17:42:10.889Z,13.60
2022-11-28T17:44:39.075Z,14.02
2022-11-28T17:47:24.044Z,13.83
2022-11-28T17:49:52.247Z,13.85
2022-11-28T17:52:21.119Z,14.35
2022-11-28T17:54:49.260Z,14.00
2022-11-28T17:57:18.535Z,13.13
2022-11-28T17:59:46.588Z,13.05
2022-11-28T18:02:14.621Z,13.57
2022-11-28T18:04:42.609Z,13.75
2022-11-28T18:07:10.524Z,14.00
2022-11-28T18:09:38.644Z,14.07
2022-11-28T18:12:07.193Z,15.52
2022-11-28T18:14:39.632Z,16.85
2022-11-28T18:17:07.856Z,16.42
2022-11-28T18:19:36.019Z,16.77
2022-11-28T18:22:04.002Z,17.25
2022-11-28T18:24:33.820Z,17.77
2022-11-28T18:27:04.777Z,18.40
2022-11-28T18:29:34.246Z,19.87
2022-11-28T18:32:06.678Z,21.38
2022-11-28T18:34:34.651Z,22.15
2022-11-28T18:37:02.757Z,23.38
2022-11-28T18:39:31.262Z,26.25
2022-11-28T18:42:00.054Z,25.92
2022-11-28T18:44:28.356Z,26.23
2022-11-28T18:46:56.270Z,27.67
2022-11-28T18:49:25.626Z,29.33
2022-11-28T18:51:55.956Z,29.50
2022-11-28T18:54:24.131Z,28.33
2022-11-28T18:56:52.197Z,31.07
2022-11-28T18:59:20.196Z,29.20
2022-11-28T19:01:48.315Z,30.60
2022-11-28T19:04:16.829Z,31.70
2022-11-28T19:06:48.377Z,32.65
2022-11-28T19:09:17.779Z,33.80
2022-11-28T19:11:46.147Z,34.00
2022-11-28T19:14:17.130Z,34.20
2022-11-28T19:16:46.992Z,35.00
2022-11-28T19:19:15.078Z,36.00
2022-11-28T19:21:43.211Z,37.20
2022-11-28T19:24:13.636Z,38.05
2022-11-28T19:26:41.500Z,37.67
2022-11-28T19:29:09.476Z,38.50
2022-11-28T19:31:38.639Z,35.92
2022-11-28T19:34:08.871Z,35.20
2022-11-28T19:36:40.649Z,37.33
2022-11-28T19:39:09.748Z,34.42
2022-11-28T19:41:38.994Z,35.53
2022-11-28T19:44:06.883Z,35.40
2022-11-28T19:46:35.903Z,38.38
2022-11-28T19:49:04.480Z,35.80
2022-11-28T19:51:32.459Z,35.92
2022-11-28T19:54:03.640Z,36.90
2022-11-28T19:56:32.528Z,35.00
2022-11-28T19:59:02.385Z,34.88
2022-11-28T20:01:30.535Z,34.30
2022-11-28T20:03:59.406Z,35.45
2022-11-28T20:06:29.728Z,33.92
2022-11-28T20:09:00.629Z,35.42
2022-11-28T20:11:30.858Z,33.45
2022-11-28T20:14:01.657Z,35.38
2022-11-28T20:16:31.386Z,33.38
2022-11-28T20:19:00.375Z,34.67
2022-11-28T20:21:29.330Z,34.80
2022-11-28T20:23:59.586Z,34.10
2022-11-28T20:26:29.572Z,33.30
2022-11-28T20:28:57.948Z,34.47
2022-11-28T20:31:31.228Z,33.72
2022-11-28T20:33:59.292Z,33.60
2022-11-28T20:36:29.989Z,32.90
2022-11-28T20:38:58.451Z,32.75
2022-11-28T20:41:27.282Z,32.80
2022-11-28T20:43:55.797Z,32.35
2022-11-28T20:46:27.167Z,30.90
2022-11-28T20:48:58.928Z,33.28
2022-11-28T20:51:28.190Z,29.65
2022-11-28T20:53:58.340Z,30.02
2022-11-28T20:56:29.220Z,30.95
2022-11-28T20:58:59.232Z,32.73
2022-11-28T21:01:33.141Z,32.87
2022-11-28T21:04:04.159Z,32.92
2022-11-28T21:06:32.773Z,32.08
2022-11-28T21:09:00.725Z,32.97
2022-11-28T21:11:59.718Z,29.48
2022-11-28T21:14:18.839Z,29.25
2022-11-28T21:16:46.947Z,29.60
2022-11-28T21:19:16.344Z,28.40
2022-11-28T21:21:44.346Z,29.23
2022-11-28T21:24:13.683Z,29.42
2022-11-28T21:26:46.637Z,27.02
2022-11-28T21:29:17.855Z,27.13
2022-11-28T21:31:47.022Z,27.30
2022-11-28T21:34:17.553Z,27.10
2022-11-28T21:36:46.013Z,26.77
2022-11-28T21:39:15.581Z,25.38
2022-11-28T21:41:43.593Z,25.30
2022-11-28T21:44:11.675Z,23.83
2022-11-28T21:46:39.667Z,24.42
2022-11-28T21:49:07.600Z,24.58
2022-11-28T21:51:37.031Z,22.65
2022-11-28T21:54:05.193Z,23.15
2022-11-28T21:56:33.175Z,22.10
2022-11-28T21:59:01.060Z,23.60
2022-11-28T22:01:29.131Z,21.77
2022-11-28T22:04:02.072Z,22.33
2022-11-28T22:06:31.032Z,21.85
2022-11-28T22:09:05.591Z,22.50
2022-11-28T22:11:36.474Z,22.50
2022-11-28T22:14:04.469Z,20.63
2022-11-28T22:16:32.410Z,21.58
2022-11-28T22:19:01.306Z,21.58
2022-11-28T22:21:51.010Z,20.10
2022-11-28T22:24:19.044Z,20.80
2022-11-28T22:26:46.923Z,21.15
2022-11-28T22:29:15.152Z,21.13
2022-11-28T22:31:43.759Z,20.40
2022-11-28T22:34:11.924Z,21.05
2022-11-28T22:36:39.896Z,20.40
2022-11-28T22:39:07.824Z,18.30
2022-11-28T22:41:37.137Z,18.98
2022-11-28T22:44:05.293Z,20.17
2022-11-28T22:46:33.907Z,19.15
2022-11-28T22:49:02.724Z,20.23
2022-11-28T22:51:31.813Z,20.40
2022-11-28T22:54:02.332Z,19.80
2022-11-28T22:56:31.501Z,19.50
2022-11-28T22:59:01.730Z,18.83
2022-11-28T23:01:31.415Z,19.17
2022-11-28T23:03:59.670Z,20.38
2022-11-28T23:06:29.319Z,19.27
2022-11-28T23:08:58.368Z,19.52
2022-11-28T23:11:28.382Z,19.42
2022-11-28T23:13:56.974Z,19.05
2022-11-28T23:16:28.208Z,19.00
2022-11-28T23:19:00.166Z,18.65
2022-11-28T23:21:31.172Z,17.60
2022-11-28T23:23:59.278Z,17.65
2022-11-28T23:26:30.256Z,17.50
2022-11-28T23:29:00.507Z,18.48
2022-11-28T23:31:31.538Z,16.73
2022-11-28T23:34:00.310Z,17.08
2022-11-28T23:36:29.927Z,15.73
2022-11-28T23:38:59.820Z,15.68
2022-11-28T23:41:28.800Z,15.98
2022-11-28T23:43:57.290Z,14.77
2022-11-28T23:46:26.216Z,15.15
2022-11-28T23:48:55.909Z,15.50
2022-11-28T23:51:26.239Z,15.13
2022-11-28T23:53:54.494Z,15.50
2022-11-28T23:56:23.965Z,14.70
2022-11-28T23:58:52.919Z,14.00
